createdAt,value
2023-05-05T00:01:14.694Z,9.20
2023-05-05T00:05:15.283Z,9.10
2023-05-05T00:09:15.769Z,9.00
2023-05-05T00:13:16.398Z,8.90
2023-05-05T00:17:19.434Z,8.80
2023-05-05T00:21:19.695Z,8.70
2023-05-05T00:25:20.383Z,8.70
2023-05-05T00:29:20.687Z,8.60
2023-05-05T00:33:23.882Z,8.60
2023-05-05T00:37:24.210Z,8.50
2023-05-05T00:41:24.711Z,8.40
2023-05-05T00:45:24.880Z,8.30
2023-05-05T00:49:27.806Z,8.30
2023-05-05T00:53:30.069Z,8.20
2023-05-05T00:57:30.338Z,8.10
2023-05-05T01:01:31.126Z,8.00
2023-05-05T01:05:45.314Z,8.00
2023-05-05T01:10:15.062Z,7.90
2023-05-05T01:14:27.116Z,7.80
2023-05-05T01:18:40.304Z,7.70
2023-05-05T01:22:49.509Z,7.70
2023-05-05T01:27:15.661Z,7.70
2023-05-05T01:31:42.592Z,7.60
2023-05-05T01:35:50.066Z,7.60
2023-05-05T01:39:58.595Z,7.40
2023-05-05T01:44:03.281Z,7.40
2023-05-05T01:48:11.338Z,7.30
2023-05-05T01:52:14.230Z,7.30
2023-05-05T01:56:17.328Z,7.30
2023-05-05T02:00:21.104Z,7.20
2023-05-05T02:04:25.309Z,7.20
2023-05-05T02:08:28.898Z,7.10
2023-05-05T02:12:31.107Z,7.00
2023-05-05T02:16:32.089Z,7.00
2023-05-05T02:20:36.393Z,6.90
2023-05-05T02:24:37.116Z,6.90
2023-05-05T02:28:45.181Z,6.80
2023-05-05T02:32:56.889Z,6.80
2023-05-05T02:37:09.768Z,6.80
2023-05-05T02:41:16.812Z,6.90
2023-05-05T02:45:23.326Z,6.80
2023-05-05T02:49:23.774Z,6.80
2023-05-05T02:53:32.101Z,6.80
2023-05-05T02:57:41.842Z,6.70
2023-05-05T03:01:58.545Z,6.80
2023-05-05T03:06:14.305Z,6.80
2023-05-05T03:10:30.774Z,6.80
2023-05-05T03:14:41.881Z,6.80
2023-05-05T03:18:47.427Z,6.80
2023-05-05T03:22:48.258Z,6.80
2023-05-05T03:26:53.663Z,6.80
2023-05-05T03:30:57.415Z,6.90
2023-05-05T03:34:58.586Z,6.90
2023-05-05T03:39:04.466Z,6.90
2023-05-05T03:43:09.706Z,6.90
2023-05-05T03:47:10.795Z,6.90
2023-05-05T03:51:12.937Z,6.70
2023-05-05T03:55:13.950Z,6.70
2023-05-05T03:59:17.697Z,6.70
2023-05-05T04:03:18.375Z,6.60
2023-05-05T04:07:19.243Z,6.60
2023-05-05T04:11:19.763Z,6.60
2023-05-05T04:15:22.990Z,6.60
2023-05-05T04:19:23.711Z,6.70
2023-05-05T04:23:24.171Z,6.70
2023-05-05T04:27:26.324Z,6.80
2023-05-05T04:31:30.863Z,6.70
2023-05-05T04:35:31.614Z,6.80
2023-05-05T04:39:32.055Z,6.80
2023-05-05T04:43:32.556Z,6.80
2023-05-05T04:47:40.026Z,6.90
2023-05-05T04:51:44.390Z,6.90
2023-05-05T04:55:44.762Z,7.00
2023-05-05T04:59:44.890Z,7.00
2023-05-05T05:03:48.916Z,7.10
2023-05-05T05:07:49.283Z,7.20
2023-05-05T05:11:49.534Z,7.40
2023-05-05T05:15:49.851Z,7.70
2023-05-05T05:19:52.882Z,8.00
2023-05-05T05:23:53.333Z,8.30
2023-05-05T05:28:08.429Z,8.80
2023-05-05T05:32:13.207Z,9.30
2023-05-05T05:36:16.755Z,9.70
2023-05-05T05:40:18.050Z,9.90
2023-05-05T05:44:19.085Z,10.00
2023-05-05T05:48:21.986Z,10.10
2023-05-05T05:52:24.828Z,10.10
2023-05-05T05:56:25.234Z,10.20
2023-05-05T06:00:26.511Z,10.50
2023-05-05T06:04:33.779Z,10.70
2023-05-05T06:08:36.722Z,10.90
2023-05-05T06:12:37.008Z,11.20
2023-05-05T06:16:37.277Z,11.40
2023-05-05T06:20:43.612Z,11.60
2023-05-05T06:24:48.643Z,11.80
2023-05-05T06:28:49.691Z,12.00
2023-05-05T06:32:50.293Z,12.10
2023-05-05T06:36:50.656Z,12.20
2023-05-05T06:40:53.869Z,12.30
2023-05-05T06:44:54.432Z,12.40
2023-05-05T06:48:54.626Z,12.50
2023-05-05T06:52:55.929Z,12.50
2023-05-05T06:56:59.790Z,12.70
2023-05-05T07:01:00.313Z,13.00
2023-05-05T07:05:00.597Z,13.20
2023-05-05T07:09:01.826Z,13.40
2023-05-05T07:13:04.804Z,13.80
2023-05-05T07:17:05.104Z,14.00
2023-05-05T07:21:06.682Z,13.90
2023-05-05T07:25:09.390Z,13.90
2023-05-05T07:29:12.376Z,14.10
2023-05-05T07:33:12.692Z,14.30
2023-05-05T07:37:12.934Z,14.60
2023-05-05T07:41:14.087Z,15.00
2023-05-05T07:45:17.096Z,15.30
2023-05-05T07:49:17.554Z,15.30
2023-05-05T07:53:18.075Z,15.60
2023-05-05T07:57:18.744Z,15.90
2023-05-05T08:01:22.190Z,16.10
2023-05-05T08:05:22.512Z,16.60
2023-05-05T08:09:22.725Z,17.50
2023-05-05T08:13:22.908Z,18.10
2023-05-05T08:17:27.336Z,18.70
2023-05-05T08:21:28.050Z,19.00
2023-05-05T08:25:28.342Z,19.30
2023-05-05T08:29:28.521Z,20.10
2023-05-05T08:33:31.381Z,20.10
2023-05-05T08:37:31.997Z,20.20
2023-05-05T08:41:32.520Z,20.30
2023-05-05T08:45:34.230Z,21.00
2023-05-05T08:49:47.639Z,21.50
2023-05-05T08:54:05.665Z,22.00
2023-05-05T08:58:06.365Z,22.10
2023-05-05T09:02:08.594Z,22.30
2023-05-05T09:06:12.482Z,22.30
2023-05-05T09:10:15.213Z,22.90
2023-05-05T09:14:16.069Z,23.50
2023-05-05T09:18:16.414Z,23.40
2023-05-05T09:22:19.966Z,23.40
2023-05-05T09:26:20.209Z,24.70
2023-05-05T09:30:27.124Z,25.50
2023-05-05T09:34:27.396Z,25.70
2023-05-05T09:38:30.200Z,25.50
2023-05-05T09:42:30.834Z,26.20
2023-05-05T09:46:31.249Z,25.80
2023-05-05T09:50:33.074Z,26.50
2023-05-05T09:54:36.190Z,25.90
2023-05-05T09:58:36.783Z,26.20
2023-05-05T10:02:42.176Z,26.80
2023-05-05T10:06:47.918Z,27.70
2023-05-05T10:10:55.737Z,27.10
2023-05-05T10:14:58.890Z,27.60
2023-05-05T10:19:01.554Z,28.00
2023-05-05T10:23:08.422Z,27.80
2023-05-05T10:27:20.281Z,28.20
2023-05-05T10:31:32.049Z,27.80
2023-05-05T10:35:35.909Z,26.70
2023-05-05T10:39:40.586Z,26.70
2023-05-05T10:43:44.038Z,27.10
2023-05-05T10:47:44.837Z,27.70
2023-05-05T10:52:04.607Z,28.00
2023-05-05T10:56:17.380Z,29.70
2023-05-05T11:00:54.828Z,29.80
2023-05-05T11:05:18.369Z,31.70
2023-05-05T11:09:39.251Z,31.70
2023-05-05T11:13:40.381Z,32.70
2023-05-05T11:17:52.588Z,32.80
2023-05-05T11:22:05.296Z,33.00
2023-05-05T11:26:05.526Z,33.10
2023-05-05T11:30:12.823Z,33.40
2023-05-05T11:34:32.505Z,34.00
2023-05-05T11:38:49.309Z,33.90
2023-05-05T11:42:49.649Z,34.00
2023-05-05T11:47:37.868Z,33.80
2023-05-05T11:51:41.065Z,33.80
2023-05-05T11:55:41.394Z,33.40
2023-05-05T11:59:57.650Z,33.30
2023-05-05T12:03:58.045Z,34.10
2023-05-05T12:08:04.476Z,34.00
2023-05-05T12:12:04.837Z,33.10
2023-05-05T12:16:13.100Z,32.00
2023-05-05T12:20:15.626Z,31.70
2023-05-05T12:24:19.158Z,30.90
2023-05-05T12:28:19.327Z,30.00
2023-05-05T12:32:24.500Z,29.70
2023-05-05T12:36:25.112Z,30.20
2023-05-05T12:40:53.079Z,30.50
2023-05-05T12:44:53.455Z,30.70
2023-05-05T12:49:05.460Z,30.10
2023-05-05T12:53:05.627Z,29.20
2023-05-05T12:57:16.700Z,28.30
2023-05-05T13:01:17.217Z,27.50
2023-05-05T13:05:17.321Z,26.60
2023-05-05T13:09:27.881Z,25.80
2023-05-05T13:13:36.349Z,25.00
2023-05-05T13:17:36.626Z,24.20
2023-05-05T13:21:37.172Z,23.60
2023-05-05T13:25:38.812Z,23.00
2023-05-05T13:29:41.861Z,22.30
2023-05-05T13:33:42.119Z,21.70
2023-05-05T13:37:42.848Z,21.30
2023-05-05T13:41:44.894Z,21.00
2023-05-05T13:45:47.801Z,20.90
2023-05-05T13:49:48.976Z,20.10
2023-05-05T13:53:49.903Z,19.10
2023-05-05T13:57:50.137Z,18.20
2023-05-05T14:01:52.925Z,17.30
2023-05-05T14:05:53.372Z,16.80
2023-05-05T14:14:19.889Z,16.20
2023-05-05T14:18:22.979Z,16.00
2023-05-05T14:22:23.207Z,16.10
2023-05-05T14:26:23.531Z,16.40
2023-05-05T14:30:23.721Z,16.70
2023-05-05T14:34:26.485Z,16.90
2023-05-05T14:38:26.708Z,17.00
2023-05-05T14:42:27.085Z,17.10
2023-05-05T14:46:27.617Z,17.10
2023-05-05T14:50:30.551Z,17.20
2023-05-05T14:54:30.840Z,17.20
2023-05-05T14:58:31.401Z,17.20
2023-05-05T15:02:31.896Z,17.10
2023-05-05T15:06:35.354Z,17.20
2023-05-05T15:10:35.592Z,17.10
2023-05-05T15:14:36.862Z,17.10
2023-05-05T15:18:37.710Z,17.20
2023-05-05T15:22:40.583Z,17.20
2023-05-05T15:26:40.772Z,17.40
2023-05-05T15:30:41.105Z,17.80
2023-05-05T15:34:41.676Z,18.20
2023-05-05T15:38:45.462Z,18.30
2023-05-05T15:42:46.095Z,18.30
2023-05-05T15:46:47.246Z,18.50
2023-05-05T15:50:49.466Z,18.60
2023-05-05T15:54:52.315Z,18.70
2023-05-05T15:58:52.972Z,18.80
2023-05-05T16:02:53.363Z,19.00
2023-05-05T16:06:53.717Z,19.10
2023-05-05T16:10:56.679Z,19.30
2023-05-05T16:14:57.407Z,19.70
2023-05-05T16:18:57.881Z,20.60
2023-05-05T16:22:58.553Z,20.80
2023-05-05T16:27:01.611Z,20.60
2023-05-05T16:31:02.331Z,20.20
2023-05-05T16:35:02.921Z,19.70
2023-05-05T16:39:03.802Z,19.30
2023-05-05T16:43:06.866Z,18.70
2023-05-05T16:47:07.471Z,18.40
2023-05-05T16:51:07.827Z,18.20
2023-05-05T16:55:09.156Z,18.00
2023-05-05T16:59:12.429Z,18.00
2023-05-05T17:03:12.697Z,17.90
2023-05-05T17:07:13.241Z,17.80
2023-05-05T17:11:13.846Z,17.80
2023-05-05T17:15:17.032Z,17.80
2023-05-05T17:19:17.728Z,17.60
2023-05-05T17:23:18.422Z,17.60
2023-05-05T17:27:19.023Z,17.50
2023-05-05T17:31:22.138Z,17.50
2023-05-05T17:35:22.885Z,17.30
2023-05-05T17:39:23.329Z,17.20
2023-05-05T17:43:23.946Z,17.20
2023-05-05T17:47:27.109Z,17.10
2023-05-05T17:51:27.585Z,17.10
2023-05-05T17:55:28.129Z,17.00
2023-05-05T17:59:28.861Z,17.00
2023-05-05T18:03:32.018Z,16.80
2023-05-05T18:07:33.799Z,16.70
2023-05-05T18:11:34.188Z,16.50
2023-05-05T18:15:34.654Z,16.40
2023-05-05T18:19:38.213Z,16.30
2023-05-05T18:23:38.673Z,16.20
2023-05-05T18:27:39.114Z,16.20
2023-05-05T18:31:39.539Z,16.10
2023-05-05T18:35:42.679Z,15.90
2023-05-05T18:39:44.118Z,15.80
2023-05-05T18:43:44.944Z,15.70
2023-05-05T18:47:45.409Z,15.50
2023-05-05T18:51:48.477Z,15.30
2023-05-05T18:55:49.705Z,15.20
2023-05-05T18:59:50.932Z,15.20
2023-05-05T19:03:51.667Z,15.20
2023-05-05T19:07:55.020Z,15.30
2023-05-05T19:11:55.460Z,15.40
2023-05-05T19:15:58.095Z,15.40
2023-05-05T19:19:58.797Z,15.40
2023-05-05T19:24:01.801Z,15.50
2023-05-05T19:28:02.723Z,15.50
2023-05-05T19:32:03.167Z,15.50
2023-05-05T19:36:05.032Z,15.50
2023-05-05T19:40:11.215Z,15.50
2023-05-05T19:44:11.630Z,15.50
2023-05-05T19:48:11.937Z,15.50
2023-05-05T19:52:12.200Z,15.40
2023-05-05T19:56:15.226Z,15.20
2023-05-05T20:00:17.908Z,15.00
2023-05-05T20:04:18.440Z,14.90
2023-05-05T20:08:18.751Z,14.80
2023-05-05T20:12:23.411Z,14.80
2023-05-05T20:16:24.429Z,14.80
2023-05-05T20:20:25.655Z,14.90
2023-05-05T20:24:26.221Z,14.80
2023-05-05T20:28:29.319Z,14.80
2023-05-05T20:32:29.546Z,14.80
2023-05-05T20:36:29.968Z,14.70
2023-05-05T20:40:30.744Z,14.80
2023-05-05T20:44:33.748Z,14.70
2023-05-05T20:48:35.358Z,14.50
2023-05-05T20:52:37.287Z,14.30
2023-05-05T20:56:37.705Z,14.20
2023-05-05T21:00:40.945Z,14.10
2023-05-05T21:04:41.934Z,14.00
2023-05-05T21:08:42.471Z,14.00
2023-05-05T21:12:43.879Z,13.90
2023-05-05T21:16:47.076Z,13.90
2023-05-05T21:20:47.539Z,13.80
2023-05-05T21:24:48.539Z,13.80
2023-05-05T21:28:50.621Z,13.80
2023-05-05T21:32:55.336Z,13.70
2023-05-05T21:36:57.481Z,13.70
2023-05-05T21:41:00.954Z,13.70
2023-05-05T21:45:01.253Z,13.70
2023-05-05T21:49:15.046Z,13.70
2023-05-05T21:53:15.417Z,13.60
2023-05-05T21:57:16.364Z,13.60
2023-05-05T22:01:16.693Z,13.60
2023-05-05T22:05:19.569Z,13.60
2023-05-05T22:09:20.050Z,13.60
2023-05-05T22:13:20.447Z,13.60
2023-05-05T22:17:20.912Z,13.60
2023-05-05T22:21:24.940Z,13.50
2023-05-05T22:25:25.911Z,13.50
2023-05-05T22:29:26.446Z,13.50
2023-05-05T22:33:27.424Z,13.40
2023-05-05T22:37:30.406Z,13.40
2023-05-05T22:41:30.976Z,13.30
2023-05-05T22:45:31.486Z,13.30
2023-05-05T22:49:31.993Z,13.30
2023-05-05T22:53:35.060Z,13.20
2023-05-05T22:57:37.505Z,13.20
2023-05-05T23:01:38.285Z,13.20
2023-05-05T23:05:38.920Z,13.20
2023-05-05T23:09:42.310Z,13.20
2023-05-05T23:13:42.741Z,13.10
2023-05-05T23:17:43.481Z,13.10
2023-05-05T23:21:52.660Z,13.20
2023-05-05T23:25:56.633Z,13.20
2023-05-05T23:29:57.009Z,13.20
2023-05-05T23:33:57.344Z,13.20
2023-05-05T23:37:57.845Z,13.10
2023-05-05T23:42:00.843Z,13.10
2023-05-05T23:46:01.420Z,13.00
2023-05-05T23:50:02.006Z,13.00
2023-05-05T23:54:02.342Z,13.00
2023-05-05T23:58:05.237Z,13.00
